Time;durP1;ratioP1;P1;durP2;ratioP2;P2;SDS_P1;SDS_P2;PMS_P1;PMS_P2;Temp;Humidity;BMP_temperature;BMP_pressure;BME280_temperature;BME280_humidity;BME280_pressure;Samples;Min_cycle;Max_cycle;Signal;HPM_P1;HPM_P2
2022/12/22 03:28:07;;;;;;;6.30;5.70;;;8.20;99.90;;;;;;5095442;28;20274;-68
2022/12/22 03:30:33;;;;;;;7.00;6.30;;;8.20;99.90;;;;;;5077246;28;20725;-68
2022/12/22 03:32:59;;;;;;;6.13;5.53;;;8.10;99.90;;;;;;5095390;28;20256;-68
2022/12/22 03:35:25;;;;;;;7.37;6.67;;;8.10;99.90;;;;;;5077251;28;20629;-68
2022/12/22 03:37:51;;;;;;;7.57;6.00;;;8.10;99.90;;;;;;5095749;28;20276;-68
2022/12/22 03:40:17;;;;;;;6.90;6.00;;;8.20;99.90;;;;;;5095305;28;20693;-68
2022/12/22 03:48:11;;;;;;;6.40;5.80;;;8.10;99.90;;;;;;5095098;28;20172;-68
2022/12/22 03:50:36;;;;;;;6.60;5.90;;;8.10;99.90;;;;;;5095060;28;20181;-68
2022/12/22 03:53:03;;;;;;;6.80;6.10;;;8.10;99.90;;;;;;5076783;28;20181;-68
2022/12/22 03:55:29;;;;;;;6.27;5.67;;;8.10;99.90;;;;;;5095211;28;20169;-68
2022/12/22 03:57:55;;;;;;;6.03;5.43;;;8.20;99.90;;;;;;5076532;28;20275;-68
2022/12/22 04:00:21;;;;;;;6.30;5.70;;;8.20;99.90;;;;;;5094556;28;20209;-68
2022/12/22 04:02:46;;;;;;;5.90;5.30;;;8.20;99.90;;;;;;5094800;28;20260;-68
2022/12/22 04:05:12;;;;;;;5.90;5.40;;;8.20;99.90;;;;;;5076662;28;20216;-68
2022/12/22 04:07:38;;;;;;;6.50;5.50;;;8.20;99.90;;;;;;5076530;28;20180;-68
2022/12/22 04:12:54;;;;;;;6.70;6.00;;;8.20;99.90;;;;;;5094832;28;20252;-68
2022/12/22 04:15:31;;;;;;;6.27;5.67;;;8.20;99.90;;;;;;5094241;28;20200;-68
2022/12/22 04:17:58;;;;;;;6.40;5.80;;;8.20;99.90;;;;;;5094420;28;20196;-68
2022/12/22 04:20:25;;;;;;;5.87;5.30;;;8.20;99.90;;;;;;5094637;28;20173;-68
2022/12/22 04:22:52;;;;;;;6.10;5.50;;;8.20;99.90;;;;;;5094780;28;20181;-68
2022/12/22 04:25:18;;;;;;;6.90;5.80;;;8.20;99.90;;;;;;5076093;28;20665;-68
2022/12/22 04:27:44;;;;;;;5.43;4.90;;;8.20;99.90;;;;;;5094577;28;20196;-68
2022/12/22 04:30:10;;;;;;;5.47;4.70;;;8.20;99.90;;;;;;5094175;28;20181;-68
2022/12/22 04:32:36;;;;;;;5.40;4.90;;;8.20;99.90;;;;;;5094761;28;20242;-68
2022/12/22 04:35:03;;;;;;;5.70;5.20;;;8.20;99.90;;;;;;5094350;28;20257;-68
2022/12/22 04:37:28;;;;;;;5.90;5.10;;;8.20;99.90;;;;;;5075869;28;20205;-68
2022/12/22 04:39:54;;;;;;;5.50;5.00;;;8.20;99.90;;;;;;5094168;28;20169;-68
2022/12/22 04:42:20;;;;;;;5.70;5.10;;;8.20;99.90;;;;;;5075962;28;20678;-68
2022/12/22 04:44:46;;;;;;;9.57;5.90;;;8.20;99.90;;;;;;5093832;28;20203;-68
2022/12/22 04:47:11;;;;;;;6.23;5.53;;;8.10;99.90;;;;;;5094009;28;20176;-69
2022/12/22 04:49:37;;;;;;;6.67;5.90;;;8.10;99.90;;;;;;5094278;28;20176;-68
2022/12/22 04:52:03;;;;;;;6.40;5.80;;;8.10;99.90;;;;;;5094586;28;20538;-68
2022/12/22 04:54:29;;;;;;;5.87;5.37;;;8.10;99.90;;;;;;5093678;28;20189;-68
2022/12/22 04:56:54;;;;;;;6.17;5.57;;;8.10;99.90;;;;;;5093735;28;20234;-68
2022/12/22 04:59:20;;;;;;;5.43;4.90;;;8.10;99.90;;;;;;5093710;28;20205;-68
2022/12/22 05:01:46;;;;;;;5.70;5.20;;;8.10;99.90;;;;;;5094451;28;20176;-68
2022/12/22 05:04:11;;;;;;;5.70;5.20;;;8.10;99.90;;;;;;5093945;28;20646;-68
2022/12/22 05:06:37;;;;;;;5.57;5.10;;;8.10;99.90;;;;;;5095779;28;20203;-69
2022/12/22 05:09:03;;;;;;;5.60;5.10;;;8.10;99.90;;;;;;5095178;28;20188;-68
2022/12/22 05:11:29;;;;;;;6.13;4.90;;;8.10;99.90;;;;;;5076210;28;20189;-68
2022/12/22 05:13:55;;;;;;;6.07;5.43;;;8.10;99.90;;;;;;5093884;28;20203;-68
2022/12/22 05:16:20;;;;;;;5.87;5.37;;;8.10;99.90;;;;;;5093754;28;20186;-68
2022/12/22 05:18:46;;;;;;;5.70;5.20;;;8.10;99.90;;;;;;5093782;28;20284;-68
2022/12/22 05:21:17;;;;;;;5.60;5.07;;;8.00;99.90;;;;;;5075469;28;20274;-68
2022/12/22 05:23:44;;;;;;;5.60;5.10;;;8.00;99.90;;;;;;5075495;28;20192;-68
2022/12/22 05:26:13;;;;;;;5.80;5.30;;;8.00;99.90;;;;;;5075488;28;20169;-68
2022/12/22 05:28:39;;;;;;;5.17;4.67;;;8.00;99.90;;;;;;5093300;28;20193;-68
2022/12/22 05:31:07;;;;;;;5.43;4.93;;;8.00;99.90;;;;;;5094357;28;20529;-68
2022/12/22 05:33:33;;;;;;;5.13;4.70;;;8.00;99.90;;;;;;5093493;28;20211;-68
2022/12/22 05:35:59;;;;;;;5.60;5.00;;;8.10;99.90;;;;;;5075401;28;20268;-68
2022/12/22 05:38:25;;;;;;;5.20;4.70;;;8.10;99.90;;;;;;5075172;28;20296;-68
2022/12/22 05:40:51;;;;;;;5.57;5.00;;;8.10;99.90;;;;;;5093796;28;20177;-68
2022/12/22 05:43:16;;;;;;;4.97;4.57;;;8.10;99.90;;;;;;5093332;28;20685;-69
2022/12/22 05:45:46;;;;;;;5.30;4.80;;;8.10;99.90;;;;;;5075313;28;20556;-68
2022/12/22 05:48:12;;;;;;;5.00;4.60;;;8.10;99.90;;;;;;5093510;28;20177;-68
2022/12/22 05:50:38;;;;;;;5.10;4.60;;;8.10;99.90;;;;;;5075180;28;20276;-68
2022/12/22 05:53:07;;;;;;;5.23;4.77;;;8.10;99.90;;;;;;5093523;28;20181;-69
2022/12/22 05:55:33;;;;;;;5.13;4.73;;;8.10;99.90;;;;;;5093168;28;20227;-68
2022/12/22 05:58:02;;;;;;;5.27;4.87;;;8.10;99.90;;;;;;5093413;28;20209;-68
2022/12/22 06:00:30;;;;;;;4.83;4.43;;;8.10;99.90;;;;;;5093065;28;20187;-68
2022/12/22 06:02:57;;;;;;;4.73;4.33;;;8.10;99.90;;;;;;5093148;28;20201;-68
2022/12/22 06:05:23;;;;;;;5.40;4.90;;;8.10;99.90;;;;;;5093097;28;20589;-69
2022/12/22 06:07:49;;;;;;;5.53;5.03;;;8.10;99.90;;;;;;5095876;28;20226;-69
2022/12/22 06:10:15;;;;;;;4.97;4.57;;;8.10;99.90;;;;;;5078955;28;20269;-69
2022/12/22 06:12:41;;;;;;;4.57;4.20;;;8.00;99.90;;;;;;5097455;28;20638;-69
2022/12/22 06:15:10;;;;;;;5.10;4.70;;;8.00;99.90;;;;;;5096857;28;20201;-69
2022/12/22 06:17:36;;;;;;;4.77;4.10;;;8.00;99.90;;;;;;5097025;28;20284;-69
2022/12/22 06:20:02;;;;;;;5.83;4.83;;;8.00;99.90;;;;;;5097088;28;20250;-70
2022/12/22 06:22:28;;;;;;;4.40;4.10;;;8.00;99.90;;;;;;5096731;28;20177;-69
2022/12/22 06:24:53;;;;;;;4.70;4.30;;;8.00;99.90;;;;;;5078199;28;20293;-69
2022/12/22 06:27:19;;;;;;;4.70;4.30;;;8.00;99.90;;;;;;5078221;28;20193;-70
2022/12/22 06:29:45;;;;;;;5.60;5.10;;;8.00;99.90;;;;;;5078343;28;20271;-69
2022/12/22 06:32:10;;;;;;;4.47;4.07;;;8.00;99.90;;;;;;5096504;28;20169;-70
2022/12/22 06:34:36;;;;;;;4.97;4.57;;;7.90;99.90;;;;;;5096400;28;20223;-67
2022/12/22 06:37:02;;;;;;;4.57;4.17;;;7.90;99.90;;;;;;5096334;28;20173;-67
2022/12/22 06:39:28;;;;;;;4.53;4.23;;;7.90;99.90;;;;;;5096162;28;20587;-67
2022/12/22 06:44:37;;;;;;;5.17;4.70;;;7.90;99.90;;;;;;5096164;28;20243;-68
2022/12/22 06:47:03;;;;;;;4.20;3.90;;;7.90;99.90;;;;;;5096234;28;20573;-69
2022/12/22 06:49:29;;;;;;;6.00;4.73;;;7.90;99.90;;;;;;5096035;28;20260;-68
2022/12/22 06:51:55;;;;;;;5.37;4.87;;;8.00;99.90;;;;;;5096034;28;20325;-68
2022/12/22 06:54:20;;;;;;;5.10;4.53;;;8.00;99.90;;;;;;5095944;28;20275;-69
2022/12/22 06:56:46;;;;;;;5.10;4.60;;;8.00;99.90;;;;;;5095852;28;20206;-69
2022/12/22 06:59:12;;;;;;;5.40;4.90;;;8.00;99.90;;;;;;5095607;28;20196;-70
2022/12/22 07:01:38;;;;;;;4.60;4.30;;;7.90;99.90;;;;;;5095858;28;20341;-70
2022/12/22 07:04:04;;;;;;;4.93;4.53;;;8.00;99.90;;;;;;5077549;28;20208;-70
2022/12/22 07:06:29;;;;;;;5.20;4.77;;;7.90;99.90;;;;;;5077806;28;20641;-70
2022/12/22 07:08:55;;;;;;;4.87;4.37;;;8.00;99.90;;;;;;5077802;28;20230;-69
2022/12/22 07:11:21;;;;;;;7.70;5.87;;;8.00;99.90;;;;;;5095651;28;20534;-68
2022/12/22 07:13:47;;;;;;;6.13;5.53;;;8.00;99.90;;;;;;5095484;28;20246;-69
2022/12/22 07:16:12;;;;;;;8.07;5.77;;;8.00;99.90;;;;;;5077436;28;20211;-68
2022/12/22 07:18:40;;;;;;;8.73;6.80;;;8.10;99.90;;;;;;5095170;28;20197;-68
2022/12/22 07:21:08;;;;;;;13.67;9.87;;;8.10;99.90;;;;;;5095491;28;20230;-68
2022/12/22 07:23:35;;;;;;;13.80;9.23;;;8.20;99.90;;;;;;5095758;28;20208;-68
2022/12/22 07:26:01;;;;;;;12.73;9.47;;;8.30;99.90;;;;;;5095727;28;20173;-68
2022/12/22 07:28:27;;;;;;;18.17;10.23;;;8.40;99.90;;;;;;5095108;28;20193;-68
2022/12/22 07:30:54;;;;;;;12.07;8.47;;;8.40;99.90;;;;;;5095847;28;20165;-68
2022/12/22 07:33:20;;;;;;;12.70;8.70;;;8.40;99.90;;;;;;5095472;28;20569;-70
2022/12/22 07:35:46;;;;;;;10.93;8.17;;;8.40;99.90;;;;;;5077030;28;20192;-70
2022/12/22 07:38:12;;;;;;;9.60;7.30;;;8.50;99.90;;;;;;5095050;28;20201;-70
2022/12/22 07:40:38;;;;;;;11.47;7.57;;;8.60;99.90;;;;;;5095060;28;20189;-70
2022/12/22 07:43:04;;;;;;;8.57;6.77;;;8.60;99.90;;;;;;5076898;28;20185;-70
2022/12/22 07:45:29;;;;;;;8.73;7.10;;;8.60;99.90;;;;;;5095046;28;20226;-69
2022/12/22 07:47:59;;;;;;;8.80;7.33;;;8.60;99.90;;;;;;5095027;28;20177;-70
2022/12/22 07:50:28;;;;;;;10.97;7.67;;;8.60;99.90;;;;;;5094899;28;20230;-70
2022/12/22 07:53:02;;;;;;;7.43;6.63;;;8.60;99.90;;;;;;5076625;28;20185;-70
2022/12/22 07:55:33;;;;;;;10.20;7.70;;;8.60;99.90;;;;;;5076644;28;20184;-70
2022/12/22 07:57:59;;;;;;;14.20;8.73;;;8.60;99.90;;;;;;5094802;28;20220;-69
2022/12/22 08:00:25;;;;;;;13.07;8.83;;;8.60;99.90;;;;;;5094663;28;20197;-69
2022/12/22 08:02:55;;;;;;;11.90;8.23;;;8.60;99.90;;;;;;5094606;28;20161;-69
2022/12/22 08:05:23;;;;;;;8.73;6.73;;;8.60;99.90;;;;;;5094548;28;20189;-69
2022/12/22 08:07:50;;;;;;;11.00;6.93;;;8.60;99.90;;;;;;5094824;28;20278;-69
2022/12/22 08:10:17;;;;;;;12.50;7.63;;;8.60;99.90;;;;;;5094859;28;20166;-69
2022/12/22 08:12:43;;;;;;;13.87;10.23;;;8.60;99.90;;;;;;5094452;28;20177;-69
2022/12/22 08:15:09;;;;;;;16.27;10.80;;;8.70;99.90;;;;;;5094220;28;20196;-69
2022/12/22 08:17:36;;;;;;;17.60;12.73;;;8.90;99.90;;;;;;5094200;28;20630;-69
2022/12/22 08:20:02;;;;;;;18.70;12.63;;;9.10;99.90;;;;;;5094255;28;20314;-69
2022/12/22 08:22:28;;;;;;;20.60;12.57;;;9.20;99.90;;;;;;5075873;28;20184;-69
2022/12/22 08:24:55;;;;;;;18.97;12.53;;;9.20;99.90;;;;;;5075901;28;20203;-69
2022/12/22 08:27:28;;;;;;;21.33;14.13;;;9.30;99.90;;;;;;5075695;28;20193;-69
2022/12/22 08:29:57;;;;;;;22.47;14.87;;;9.30;99.90;;;;;;5075036;28;20177;-69
2022/12/22 08:32:24;;;;;;;20.53;13.63;;;9.30;99.90;;;;;;5094318;28;20188;-69
2022/12/22 08:34:51;;;;;;;21.60;14.03;;;9.30;99.90;;;;;;5094215;28;20195;-69
2022/12/22 08:37:19;;;;;;;28.70;16.10;;;9.40;99.90;;;;;;5094110;28;20161;-69
2022/12/22 08:39:51;;;;;;;28.63;17.13;;;9.40;99.90;;;;;;5076000;28;20185;-69
2022/12/22 08:42:19;;;;;;;30.70;17.13;;;9.40;99.90;;;;;;5094122;28;20207;-69
2022/12/22 08:44:46;;;;;;;31.80;17.97;;;9.40;99.90;;;;;;5093593;28;20186;-69
2022/12/22 08:47:12;;;;;;;33.60;20.23;;;9.40;99.90;;;;;;5075718;28;20565;-69
2022/12/22 08:49:37;;;;;;;40.90;22.30;;;9.40;99.90;;;;;;5093964;28;20177;-69
2022/12/22 08:52:03;;;;;;;46.03;21.37;;;9.30;99.90;;;;;;5094340;28;20184;-69
2022/12/22 08:54:29;;;;;;;43.07;21.40;;;9.40;99.90;;;;;;5093801;28;20660;-69
2022/12/22 08:56:57;;;;;;;43.67;22.73;;;9.40;99.90;;;;;;5075610;28;20241;-69
2022/12/22 08:59:23;;;;;;;50.47;23.33;;;9.40;99.90;;;;;;5093387;28;20688;-69
2022/12/22 09:01:49;;;;;;;50.40;24.43;;;9.40;99.90;;;;;;5093721;28;20177;-69
2022/12/22 09:04:18;;;;;;;51.37;23.03;;;9.40;99.90;;;;;;5093766;28;20185;-69
2022/12/22 09:06:44;;;;;;;39.93;20.30;;;9.40;99.90;;;;;;5075406;28;20519;-69
2022/12/22 09:09:12;;;;;;;38.03;19.63;;;9.30;99.90;;;;;;5094066;28;20523;-68
2022/12/22 09:11:39;;;;;;;37.57;19.50;;;9.30;99.90;;;;;;5075207;28;20192;-69
2022/12/22 09:14:05;;;;;;;35.87;19.57;;;9.30;99.90;;;;;;5075220;28;20669;-69
2022/12/22 09:16:33;;;;;;;42.33;20.93;;;9.30;99.90;;;;;;5075291;28;20173;-68
2022/12/22 09:18:59;;;;;;;37.13;21.03;;;9.30;99.90;;;;;;5075202;28;20204;-69
2022/12/22 09:21:26;;;;;;;43.20;22.37;;;9.30;99.90;;;;;;5093354;28;20168;-69
2022/12/22 09:23:53;;;;;;;44.07;22.77;;;9.30;99.90;;;;;;5093432;28;20216;-68
2022/12/22 09:26:21;;;;;;;41.90;21.20;;;9.30;99.90;;;;;;5093419;28;20181;-69
2022/12/22 09:28:47;;;;;;;43.13;21.70;;;9.30;99.90;;;;;;5074905;28;20231;-69
2022/12/22 09:31:13;;;;;;;43.90;21.73;;;9.30;99.90;;;;;;5075109;28;20564;-69
2022/12/22 09:33:39;;;;;;;41.37;19.67;;;9.30;99.90;;;;;;5074987;28;20657;-69
2022/12/22 09:36:10;;;;;;;36.07;19.10;;;9.30;99.90;;;;;;5093742;28;20177;-69
2022/12/22 09:38:37;;;;;;;41.57;19.80;;;9.30;99.90;;;;;;5093552;28;20539;-69
2022/12/22 09:41:16;;;;;;;37.83;18.93;;;9.30;99.90;;;;;;5095154;28;20184;-68
2022/12/22 09:43:42;;;;;;;42.80;19.10;;;9.20;99.90;;;;;;5078916;28;20193;-69
2022/12/22 09:46:17;;;;;;;34.57;18.80;;;9.20;99.90;;;;;;5097271;28;20677;-69
2022/12/22 09:48:43;;;;;;;34.07;18.03;;;9.30;99.90;;;;;;5097294;28;20196;-69
2022/12/22 09:51:12;;;;;;;41.13;20.37;;;9.30;99.90;;;;;;5078933;28;20219;-69
2022/12/22 09:53:39;;;;;;;34.77;17.87;;;9.30;99.90;;;;;;5097148;28;20265;-69
2022/12/22 09:56:05;;;;;;;30.97;18.60;;;9.30;99.90;;;;;;5097351;28;20172;-69
2022/12/22 09:58:34;;;;;;;36.03;18.17;;;9.30;99.90;;;;;;5096871;28;20240;-69
2022/12/22 10:01:33;;;;;;;37.43;18.03;;;9.30;99.90;;;;;;5097012;28;20532;-69
2022/12/22 10:04:30;;;;;;;41.60;21.27;;;9.30;99.90;;;;;;5097262;28;20193;-69
2022/12/22 10:07:15;;;;;;;42.33;19.50;;;9.30;99.90;;;;;;5092355;28;20275;-69
2022/12/22 10:09:41;;;;;;;37.53;20.53;;;9.30;99.90;;;;;;5097152;28;20168;-69
2022/12/22 10:12:14;;;;;;;50.07;25.67;;;9.40;99.90;;;;;;5096824;28;20185;-69
2022/12/22 10:14:47;;;;;;;54.27;26.10;;;9.40;99.90;;;;;;5078396;28;20230;-69
2022/12/22 10:17:31;;;;;;;64.60;26.97;;;9.40;99.90;;;;;;5097012;28;20185;-69
2022/12/22 10:20:20;;;;;;;62.07;28.73;;;9.40;99.90;;;;;;5096798;28;20177;-69
2022/12/22 10:22:52;;;;;;;56.27;26.03;;;9.50;99.90;;;;;;5097110;28;20226;-69
2022/12/22 10:25:32;;;;;;;55.60;26.90;;;9.40;99.90;;;;;;5078264;28;20201;-69
2022/12/22 10:28:00;;;;;;;60.40;25.77;;;9.50;99.90;;;;;;5096648;28;20192;-69
2022/12/22 10:30:30;;;;;;;54.33;25.30;;;9.50;99.90;;;;;;5096313;28;20672;-69
2022/12/22 10:33:16;;;;;;;49.73;24.47;;;9.50;99.90;;;;;;5078354;28;20169;-69
2022/12/22 10:35:56;;;;;;;51.73;24.97;;;9.60;99.90;;;;;;5078273;28;20611;-69
2022/12/22 10:38:51;;;;;;;47.40;23.97;;;9.60;99.90;;;;;;5096755;28;20223;-69
2022/12/22 10:41:19;;;;;;;46.93;24.87;;;9.70;99.90;;;;;;5096463;28;20195;-69
2022/12/22 10:44:25;;;;;;;39.53;22.40;;;9.60;99.90;;;;;;5077923;28;20683;-69
2022/12/22 10:46:54;;;;;;;45.40;22.30;;;9.60;99.90;;;;;;5082098;28;20211;-69
2022/12/22 10:49:49;;;;;;;52.37;25.40;;;9.60;99.90;;;;;;5096461;28;20162;-69
2022/12/22 10:52:22;;;;;;;54.17;28.10;;;9.50;99.90;;;;;;5083529;28;20196;-69
2022/12/22 10:54:48;;;;;;;56.00;30.87;;;9.50;99.90;;;;;;5079532;28;20197;-69
2022/12/22 10:57:13;;;;;;;51.00;28.50;;;9.40;99.90;;;;;;5079299;28;20173;-69
2022/12/22 11:00:00;;;;;;;53.60;29.03;;;9.40;99.90;;;;;;5096449;28;20215;-69
2022/12/22 11:02:32;;;;;;;57.67;30.33;;;9.30;99.90;;;;;;5096275;28;20517;-69
2022/12/22 11:05:09;;;;;;;52.43;27.97;;;9.30;99.90;;;;;;5077590;28;20681;-67
2022/12/22 11:07:38;;;;;;;64.27;31.33;;;9.30;99.90;;;;;;5095776;28;20203;-70
2022/12/22 11:10:21;;;;;;;62.03;32.20;;;9.30;99.90;;;;;;5077632;28;20203;-70
2022/12/22 11:13:05;;;;;;;56.07;26.83;;;9.20;99.90;;;;;;5077636;28;20582;-69
2022/12/22 11:15:59;;;;;;;54.10;29.40;;;9.30;99.90;;;;;;5095510;28;20184;-69
2022/12/22 11:18:44;;;;;;;58.60;29.90;;;9.20;99.90;;;;;;5096053;28;20591;-69
2022/12/22 11:21:34;;;;;;;56.57;29.73;;;9.20;99.90;;;;;;5095719;28;20502;-69
2022/12/22 11:24:20;;;;;;;55.73;28.80;;;9.20;99.90;;;;;;5095743;28;20193;-69
2022/12/22 11:27:10;;;;;;;56.20;27.60;;;9.10;99.90;;;;;;5077489;28;20173;-69
2022/12/22 11:30:07;;;;;;;56.50;28.47;;;9.10;99.90;;;;;;5077248;28;20233;-69
2022/12/22 11:32:55;;;;;;;59.23;28.67;;;9.10;99.90;;;;;;5068594;28;20185;-69
2022/12/22 11:35:37;;;;;;;53.47;27.97;;;9.10;99.90;;;;;;5095490;28;20212;-70
2022/12/22 11:38:10;;;;;;;51.97;27.20;;;9.10;99.90;;;;;;5095482;28;20189;-70
2022/12/22 11:40:47;;;;;;;49.93;26.30;;;9.00;99.90;;;;;;5095320;28;20161;-69
2022/12/22 11:43:38;;;;;;;51.00;28.20;;;9.00;99.90;;;;;;5077228;28;20579;-69
2022/12/22 11:46:22;;;;;;;51.97;27.37;;;9.00;99.90;;;;;;5076637;28;20173;-70
2022/12/22 11:48:51;;;;;;;56.40;27.83;;;9.00;99.90;;;;;;5076767;28;20226;-69
2022/12/22 11:51:35;;;;;;;49.47;25.87;;;9.00;99.90;;;;;;5094816;28;20196;-69
2022/12/22 11:54:28;;;;;;;47.47;25.80;;;9.00;99.90;;;;;;5094967;28;20197;-70
2022/12/22 11:57:06;;;;;;;47.57;26.33;;;8.90;99.90;;;;;;5076702;28;20187;-69
2022/12/22 11:59:35;;;;;;;55.97;28.87;;;9.00;99.90;;;;;;5094635;28;20283;-69
2022/12/22 12:02:18;;;;;;;53.07;28.27;;;9.20;99.90;;;;;;5094769;28;20180;-69
2022/12/22 12:05:21;;;;;;;57.20;28.57;;;9.40;99.90;;;;;;5093834;28;20197;-69
2022/12/22 12:08:22;;;;;;;58.00;30.50;;;9.50;99.90;;;;;;5076586;28;20671;-69
2022/12/22 12:11:00;;;;;;;56.30;30.23;;;9.40;99.90;;;;;;5094545;28;20254;-69
2022/12/22 12:13:39;;;;;;;51.00;28.77;;;9.20;99.90;;;;;;5076539;28;20207;-69
2022/12/22 12:16:08;;;;;;;49.03;28.20;;;9.10;99.90;;;;;;5094466;28;20165;-69
2022/12/22 12:18:40;;;;;;;50.23;28.53;;;9.10;99.90;;;;;;5076283;28;20200;-69
2022/12/22 12:21:41;;;;;;;50.27;27.03;;;9.20;99.90;;;;;;5076409;28;20166;-69
2022/12/22 12:24:15;;;;;;;42.87;24.67;;;9.30;99.90;;;;;;5068488;28;20219;-69
2022/12/22 12:27:14;;;;;;;36.67;22.00;;;9.40;99.90;;;;;;5076075;28;20525;-69
2022/12/22 12:29:51;;;;;;;31.37;20.27;;;9.30;99.90;;;;;;5076116;28;20181;-70
2022/12/22 12:32:39;;;;;;;37.23;21.17;;;9.40;99.90;;;;;;5094822;28;20571;-68
2022/12/22 12:35:52;;;;;;;33.63;19.93;;;9.40;99.90;;;;;;5094422;28;20573;-68
2022/12/22 12:38:27;;;;;;;33.20;19.20;;;9.50;99.90;;;;;;5086576;28;20244;-68
2022/12/22 12:41:18;;;;;;;30.43;19.17;;;9.60;99.90;;;;;;5075769;28;20258;-68
2022/12/22 12:43:44;;;;;;;27.47;17.47;;;9.60;99.90;;;;;;5085416;28;20788;-68
2022/12/22 12:46:49;;;;;;;27.13;16.33;;;9.80;99.90;;;;;;5093955;28;20177;-68
2022/12/22 12:49:33;;;;;;;28.27;15.50;;;9.70;99.90;;;;;;5075721;28;20200;-68
2022/12/22 12:52:02;;;;;;;28.27;16.57;;;9.60;99.90;;;;;;5093779;28;20184;-68
2022/12/22 12:54:28;;;;;;;29.90;16.73;;;9.40;99.90;;;;;;5094398;28;20685;-68
2022/12/22 12:57:43;;;;;;;27.93;17.57;;;9.30;99.90;;;;;;5093822;28;20252;-68
2022/12/22 13:00:32;;;;;;;28.43;17.47;;;9.30;99.90;;;;;;5093746;28;20185;-68
2022/12/22 13:03:06;;;;;;;33.17;19.03;;;9.10;99.90;;;;;;5075475;28;20168;-68
2022/12/22 13:05:51;;;;;;;30.53;18.67;;;9.10;99.90;;;;;;5075589;28;20173;-68
2022/12/22 13:08:28;;;;;;;28.37;17.07;;;9.10;99.90;;;;;;5093610;28;20177;-68
2022/12/22 13:10:54;;;;;;;25.67;16.87;;;9.20;99.90;;;;;;5093650;28;20188;-68
2022/12/22 13:13:22;;;;;;;27.43;16.93;;;9.30;99.90;;;;;;5093518;28;20174;-68
2022/12/22 13:15:58;;;;;;;24.10;16.07;;;9.40;99.90;;;;;;5074939;28;20211;-68
2022/12/22 13:18:23;;;;;;;25.53;17.20;;;9.30;99.90;;;;;;5075437;28;20196;-68
2022/12/22 13:21:15;;;;;;;26.77;18.10;;;9.10;99.90;;;;;;5093490;28;20227;-68
2022/12/22 13:23:54;;;;;;;28.07;17.30;;;9.10;99.90;;;;;;5093970;28;20292;-68
2022/12/22 13:26:22;;;;;;;26.40;17.30;;;9.00;99.90;;;;;;5093752;28;20516;-68
2022/12/22 13:28:56;;;;;;;28.53;18.53;;;9.00;99.90;;;;;;5075133;28;20193;-68
2022/12/22 13:31:32;;;;;;;28.53;17.97;;;9.00;99.90;;;;;;5075207;28;20257;-68
2022/12/22 13:34:29;;;;;;;26.30;17.07;;;8.90;99.90;;;;;;5093420;28;20192;-68
2022/12/22 13:36:57;;;;;;;27.33;17.20;;;8.90;99.90;;;;;;5067000;28;20187;-68
2022/12/22 13:39:23;;;;;;;26.93;17.03;;;8.80;99.90;;;;;;5075121;28;20200;-68
2022/12/22 13:41:50;;;;;;;26.27;17.60;;;8.80;99.90;;;;;;5075271;28;20191;-68
2022/12/22 13:44:25;;;;;;;25.80;16.83;;;8.80;99.90;;;;;;5093227;28;20200;-68
2022/12/22 13:46:53;;;;;;;27.17;17.53;;;8.80;99.90;;;;;;5093349;28;20527;-68
2022/12/22 13:49:20;;;;;;;23.20;16.47;;;8.80;99.90;;;;;;5075182;28;20180;-68
2022/12/22 13:51:47;;;;;;;22.30;15.73;;;8.80;99.90;;;;;;5075099;28;20260;-68
2022/12/22 13:54:26;;;;;;;23.33;14.27;;;8.70;99.90;;;;;;5093261;28;20212;-68
2022/12/22 13:56:55;;;;;;;19.50;13.00;;;8.70;99.90;;;;;;5075070;28;20711;-68
2022/12/22 13:59:34;;;;;;;21.13;13.83;;;8.60;99.90;;;;;;5074753;28;20578;-68
2022/12/22 14:02:03;;;;;;;21.30;11.90;;;8.60;99.90;;;;;;5093193;28;20165;-68
2022/12/22 14:04:29;;;;;;;16.17;11.07;;;8.60;99.90;;;;;;5093357;28;20192;-68
2022/12/22 14:06:55;;;;;;;16.40;11.17;;;8.60;99.90;;;;;;5093080;28;20658;-68
2022/12/22 14:09:25;;;;;;;16.63;11.47;;;8.60;99.90;;;;;;5074904;28;20173;-68
2022/12/22 14:12:09;;;;;;;17.63;10.90;;;8.60;99.90;;;;;;5093267;28;20181;-68
2022/12/22 14:14:38;;;;;;;17.50;11.73;;;8.70;99.90;;;;;;5093032;28;20196;-68
2022/12/22 14:17:21;;;;;;;19.00;12.03;;;8.60;99.90;;;;;;5093099;28;20543;-68
2022/12/22 14:19:52;;;;;;;18.67;11.50;;;8.70;99.90;;;;;;5093332;28;20185;-68
2022/12/22 14:22:23;;;;;;;18.47;11.63;;;8.70;99.90;;;;;;5074900;28;20176;-68
2022/12/22 14:24:53;;;;;;;15.13;11.13;;;8.70;99.90;;;;;;5092871;28;20543;-68
2022/12/22 14:27:36;;;;;;;17.07;10.97;;;8.70;99.90;;;;;;5093328;28;20242;-68
2022/12/22 14:30:06;;;;;;;19.33;12.27;;;8.80;99.90;;;;;;5096487;28;20244;-68
2022/12/22 14:32:44;;;;;;;17.60;11.53;;;8.80;99.90;;;;;;5096462;28;20180;-68
2022/12/22 14:35:19;;;;;;;18.47;11.97;;;8.90;99.90;;;;;;5096745;28;20189;-68
2022/12/22 14:37:49;;;;;;;17.87;12.60;;;8.90;99.90;;;;;;5096394;28;20238;-68
2022/12/22 14:40:40;;;;;;;18.80;11.17;;;8.80;99.90;;;;;;5078311;28;20173;-68
2022/12/22 14:43:18;;;;;;;20.30;12.13;;;8.80;99.90;;;;;;5077953;28;20173;-68
2022/12/22 14:45:46;;;;;;;20.53;12.30;;;8.70;99.90;;;;;;5096097;28;20568;-68
2022/12/22 14:48:25;;;;;;;20.17;13.80;;;8.70;99.90;;;;;;5096288;28;20262;-67
2022/12/22 14:50:52;;;;;;;16.67;11.97;;;8.70;99.90;;;;;;5077785;28;20169;-67
2022/12/22 14:53:31;;;;;;;17.00;11.40;;;8.70;99.90;;;;;;5096088;28;20176;-67
2022/12/22 14:55:57;;;;;;;17.03;10.17;;;8.60;99.90;;;;;;5096340;28;20168;-68
2022/12/22 14:58:32;;;;;;;18.67;10.57;;;8.50;99.90;;;;;;5077927;28;20197;-67
2022/12/22 15:01:20;;;;;;;20.33;11.63;;;8.40;99.90;;;;;;5095851;28;20164;-67
2022/12/22 15:04:18;;;;;;;16.57;10.37;;;8.40;99.90;;;;;;5096055;28;20676;-67
2022/12/22 15:06:46;;;;;;;17.63;11.37;;;8.40;99.90;;;;;;5096042;28;20158;-67
2022/12/22 15:09:12;;;;;;;16.90;11.07;;;8.30;99.90;;;;;;5077506;28;20177;-67
2022/12/22 15:11:46;;;;;;;15.00;11.20;;;8.20;99.90;;;;;;5095601;28;20184;-67
2022/12/22 15:14:16;;;;;;;15.77;10.90;;;8.20;99.90;;;;;;5095618;28;20294;-68
2022/12/22 15:16:43;;;;;;;16.27;11.37;;;8.20;99.90;;;;;;5095450;28;20169;-67
2022/12/22 15:19:15;;;;;;;19.47;12.00;;;8.10;99.90;;;;;;5095723;28;20686;-67
2022/12/22 15:21:41;;;;;;;20.90;11.40;;;8.00;99.90;;;;;;5095511;28;20222;-67
2022/12/22 15:24:15;;;;;;;17.07;11.13;;;8.00;99.90;;;;;;5095411;28;20212;-67
2022/12/22 15:26:42;;;;;;;14.80;10.20;;;8.00;99.90;;;;;;5077021;28;20640;-68
2022/12/22 15:29:08;;;;;;;14.77;10.70;;;8.00;99.90;;;;;;5095563;28;20176;-67
2022/12/22 15:31:34;;;;;;;18.83;11.80;;;8.00;99.90;;;;;;5095215;28;20252;-68
2022/12/22 15:34:03;;;;;;;18.67;11.17;;;8.00;99.90;;;;;;5076921;28;20687;-68
2022/12/22 15:36:28;;;;;;;18.57;12.57;;;8.00;99.90;;;;;;5076847;28;20222;-68
2022/12/22 15:38:54;;;;;;;17.20;11.63;;;8.00;99.90;;;;;;5094768;28;20201;-68
2022/12/22 15:41:20;;;;;;;17.53;11.27;;;8.00;99.90;;;;;;5094985;28;20177;-68
2022/12/22 15:43:46;;;;;;;16.67;12.27;;;7.90;99.90;;;;;;5076892;28;20538;-68
2022/12/22 15:46:17;;;;;;;18.70;11.90;;;7.90;99.90;;;;;;5076769;28;20180;-68
2022/12/22 15:48:45;;;;;;;19.50;11.37;;;7.90;99.90;;;;;;5076763;28;20209;-67
2022/12/22 15:51:19;;;;;;;16.20;11.77;;;7.90;99.90;;;;;;5094867;28;20209;-68
2022/12/22 15:53:45;;;;;;;13.80;10.10;;;7.90;99.90;;;;;;5095124;28;20188;-68
2022/12/22 15:56:20;;;;;;;14.47;10.80;;;7.90;99.90;;;;;;5076816;28;20233;-68
2022/12/22 15:58:46;;;;;;;15.93;11.37;;;7.90;99.90;;;;;;5077046;28;20204;-68
2022/12/22 16:01:12;;;;;;;16.67;11.57;;;7.90;99.90;;;;;;5094748;28;20169;-69
2022/12/22 16:03:38;;;;;;;13.50;9.63;;;7.90;99.90;;;;;;5076089;28;20533;-67
2022/12/22 16:06:05;;;;;;;15.33;10.10;;;7.90;99.90;;;;;;5076392;28;20165;-66
2022/12/22 16:08:36;;;;;;;15.43;10.13;;;7.90;99.90;;;;;;5094843;28;20176;-66
2022/12/22 16:11:04;;;;;;;17.10;11.17;;;7.90;99.90;;;;;;5076623;28;20272;-66
2022/12/22 16:13:30;;;;;;;14.03;10.23;;;7.90;99.90;;;;;;5076695;28;20673;-66
2022/12/22 16:15:57;;;;;;;15.47;10.43;;;8.00;99.90;;;;;;5094646;28;20222;-66
2022/12/22 16:18:22;;;;;;;15.00;10.30;;;7.90;99.90;;;;;;5094414;28;20197;-66
2022/12/22 16:20:51;;;;;;;17.03;10.70;;;7.90;99.90;;;;;;5094344;28;20177;-67
2022/12/22 16:23:21;;;;;;;15.20;10.27;;;7.90;99.90;;;;;;5094843;28;20177;-67
2022/12/22 16:25:48;;;;;;;16.73;10.97;;;7.90;99.90;;;;;;5094217;28;20181;-70
2022/12/22 16:28:22;;;;;;;16.03;11.07;;;7.90;99.90;;;;;;5094209;28;20254;-74
2022/12/22 16:30:48;;;;;;;16.87;11.77;;;8.00;99.90;;;;;;5094448;28;20701;-68
2022/12/22 16:33:15;;;;;;;15.37;10.37;;;7.90;99.90;;;;;;5094893;28;20243;-69
2022/12/22 16:35:41;;;;;;;18.80;11.70;;;7.90;99.90;;;;;;5094504;28;20223;-68
2022/12/22 16:38:08;;;;;;;19.13;12.30;;;7.90;99.90;;;;;;5094259;28;20720;-69
2022/12/22 16:40:42;;;;;;;21.60;14.20;;;8.00;99.90;;;;;;5094246;28;20629;-69
2022/12/22 16:43:34;;;;;;;19.17;12.80;;;8.00;99.90;;;;;;5075680;28;20173;-70